createdAt,value
2022-08-19T00:02:06.568Z,20.82
2022-08-19T00:04:38.108Z,20.78
2022-08-19T00:07:08.155Z,20.76
2022-08-19T00:09:36.644Z,20.72
2022-08-19T00:12:05.964Z,20.70
2022-08-19T00:14:34.539Z,20.68
2022-08-19T00:17:03.578Z,20.66
2022-08-19T00:19:32.548Z,20.63
2022-08-19T00:22:03.516Z,20.59
2022-08-19T00:24:32.111Z,20.57
2022-08-19T00:27:25.135Z,20.55
2022-08-19T00:29:52.554Z,20.52
2022-08-19T00:32:23.857Z,20.47
2022-08-19T00:34:54.614Z,20.44
2022-08-19T00:37:27.247Z,20.41
2022-08-19T00:39:56.944Z,20.40
2022-08-19T00:42:29.663Z,20.37
2022-08-19T00:44:58.458Z,20.37
2022-08-19T00:47:26.877Z,20.38
2022-08-19T00:49:59.198Z,20.38
2022-08-19T00:52:32.069Z,20.36
2022-08-19T00:55:01.640Z,20.32
2022-08-19T00:57:35.817Z,20.30
2022-08-19T01:00:09.826Z,20.29
2022-08-19T01:02:38.720Z,20.26
2022-08-19T01:05:11.138Z,20.22
2022-08-19T01:07:43.456Z,20.21
2022-08-19T01:10:14.797Z,20.17
2022-08-19T01:12:47.069Z,20.17
2022-08-19T01:15:20.736Z,20.16
2022-08-19T01:17:50.665Z,20.14
2022-08-19T01:20:22.647Z,20.14
2022-08-19T01:22:55.819Z,20.14
2022-08-19T01:25:28.846Z,20.14
2022-08-19T01:28:01.643Z,20.17
2022-08-19T01:30:38.860Z,20.21
2022-08-19T01:33:07.351Z,20.26
2022-08-19T01:35:38.495Z,20.29
2022-08-19T01:38:11.286Z,20.24
2022-08-19T01:40:43.364Z,20.25
2022-08-19T01:43:12.291Z,20.26
2022-08-19T01:45:41.393Z,20.24
2022-08-19T01:48:10.547Z,20.25
2022-08-19T01:50:39.404Z,20.25
2022-08-19T01:53:12.006Z,20.28
2022-08-19T01:55:44.348Z,20.27
2022-08-19T01:58:17.483Z,20.29
2022-08-19T02:00:47.491Z,20.30
2022-08-19T02:03:17.242Z,20.32
2022-08-19T02:05:46.836Z,20.36
2022-08-19T02:08:17.343Z,20.36
2022-08-19T02:10:46.772Z,20.36
2022-08-19T02:13:16.080Z,20.37
2022-08-19T02:15:49.781Z,20.37
2022-08-19T02:18:18.650Z,20.36
2022-08-19T02:20:48.200Z,20.35
2022-08-19T02:23:18.853Z,20.31
2022-08-19T02:25:50.045Z,20.34
2022-08-19T02:28:19.185Z,20.31
2022-08-19T02:30:49.411Z,20.30
2022-08-19T02:33:19.107Z,20.29
2022-08-19T02:35:48.644Z,20.29
2022-08-19T02:38:27.252Z,20.29
2022-08-19T02:40:59.056Z,20.31
2022-08-19T02:43:33.855Z,20.32
2022-08-19T02:46:04.381Z,20.30
2022-08-19T02:48:34.123Z,20.29
2022-08-19T02:51:02.735Z,20.26
2022-08-19T02:53:33.410Z,20.23
2022-08-19T02:56:01.868Z,20.21
2022-08-19T02:58:30.630Z,20.20
2022-08-19T03:00:59.775Z,20.17
2022-08-19T03:03:29.107Z,20.16
2022-08-19T03:06:09.517Z,20.12
2022-08-19T03:08:41.231Z,20.08
2022-08-19T03:11:16.273Z,20.06
2022-08-19T03:13:45.601Z,20.01
2022-08-19T03:16:14.849Z,19.99
2022-08-19T03:18:47.549Z,19.96
2022-08-19T03:21:19.056Z,19.90
2022-08-19T03:23:49.290Z,19.89
2022-08-19T03:26:19.900Z,19.86
2022-08-19T03:28:57.685Z,19.83
2022-08-19T03:31:45.709Z,19.81
2022-08-19T03:34:20.805Z,19.80
2022-08-19T03:36:49.673Z,19.79
2022-08-19T03:39:20.801Z,19.78
2022-08-19T03:42:32.424Z,19.78
2022-08-19T03:44:43.478Z,19.76
2022-08-19T03:47:17.928Z,19.77
2022-08-19T03:49:47.787Z,19.76
2022-08-19T03:52:17.372Z,19.73
2022-08-19T03:54:47.897Z,19.72
2022-08-19T03:57:16.409Z,19.74
2022-08-19T03:59:45.261Z,19.76
2022-08-19T04:02:15.200Z,19.77
2022-08-19T04:04:45.769Z,19.79
2022-08-19T04:07:17.352Z,19.84
2022-08-19T04:09:47.556Z,19.91
2022-08-19T04:12:17.214Z,19.94
2022-08-19T04:14:45.746Z,20.00
2022-08-19T04:17:15.386Z,20.06
2022-08-19T04:19:45.710Z,20.12
2022-08-19T04:22:14.379Z,20.16
2022-08-19T04:24:43.050Z,20.22
2022-08-19T04:27:13.313Z,20.28
2022-08-19T04:29:42.445Z,20.35
2022-08-19T04:32:16.464Z,20.40
2022-08-19T04:35:01.253Z,20.46
2022-08-19T04:37:35.384Z,20.55
2022-08-19T04:40:25.425Z,20.62
2022-08-19T04:42:56.056Z,20.69
2022-08-19T04:45:25.340Z,20.78
2022-08-19T04:48:26.508Z,20.84
2022-08-19T04:50:48.190Z,20.94
2022-08-19T04:53:17.159Z,21.02
2022-08-19T04:55:46.038Z,21.11
2022-08-19T04:58:17.565Z,21.20
2022-08-19T05:00:46.560Z,21.28
2022-08-19T05:03:18.309Z,21.37
2022-08-19T05:05:49.882Z,21.45
2022-08-19T05:08:31.513Z,21.54
2022-08-19T05:11:01.214Z,21.61
2022-08-19T05:13:31.629Z,21.69
2022-08-19T05:16:01.700Z,21.76
2022-08-19T05:18:47.910Z,21.84
2022-08-19T05:21:37.095Z,21.92
2022-08-19T05:24:09.575Z,22.03
2022-08-19T05:26:38.555Z,22.14
2022-08-19T05:29:10.316Z,22.25
2022-08-19T05:31:41.611Z,22.36
2022-08-19T05:34:18.457Z,22.47
2022-08-19T05:36:50.508Z,22.60
2022-08-19T05:39:22.248Z,22.72
2022-08-19T05:41:54.099Z,22.83
2022-08-19T05:44:27.831Z,22.94
2022-08-19T05:46:56.920Z,23.05
2022-08-19T05:49:26.545Z,23.17
2022-08-19T05:51:56.131Z,23.30
2022-08-19T05:54:25.216Z,23.44
2022-08-19T05:56:55.220Z,23.58
2022-08-19T05:59:25.063Z,23.70
2022-08-19T06:01:58.235Z,23.80
2022-08-19T06:04:27.895Z,23.87
2022-08-19T06:06:57.725Z,23.96
2022-08-19T06:09:26.941Z,24.06
2022-08-19T06:12:00.879Z,24.17
2022-08-19T06:14:32.204Z,24.29
2022-08-19T06:17:07.066Z,24.37
2022-08-19T06:19:40.764Z,24.45
2022-08-19T06:22:12.721Z,24.53
2022-08-19T06:24:42.489Z,24.59
2022-08-19T06:27:12.848Z,24.73
2022-08-19T06:29:42.010Z,24.85
2022-08-19T06:32:12.366Z,25.00
2022-08-19T06:34:42.243Z,25.18
2022-08-19T06:37:11.187Z,25.37
2022-08-19T06:39:41.451Z,25.56
2022-08-19T06:42:12.823Z,25.72
2022-08-19T06:44:48.847Z,25.84
2022-08-19T06:47:28.944Z,25.99
2022-08-19T06:50:02.977Z,26.14
2022-08-19T06:52:34.041Z,26.29
2022-08-19T06:55:06.209Z,26.45
2022-08-19T06:57:36.287Z,26.56
2022-08-19T07:00:08.799Z,26.66
2022-08-19T07:02:48.032Z,26.76
2022-08-19T07:05:26.769Z,26.92
2022-08-19T07:07:58.250Z,27.08
2022-08-19T07:10:32.783Z,27.25
2022-08-19T07:13:01.725Z,27.43
2022-08-19T07:15:30.407Z,27.60
2022-08-19T07:18:00.457Z,27.77
2022-08-19T07:20:29.184Z,27.91
2022-08-19T07:22:58.835Z,28.04
2022-08-19T07:25:32.443Z,28.12
2022-08-19T07:28:02.526Z,28.21
2022-08-19T07:30:31.708Z,28.29
2022-08-19T07:33:03.622Z,28.41
2022-08-19T07:35:35.946Z,28.56
2022-08-19T07:38:05.284Z,28.70
2022-08-19T07:40:34.329Z,28.82
2022-08-19T07:43:03.439Z,28.92
2022-08-19T07:45:34.865Z,29.03
2022-08-19T07:48:06.255Z,29.10
2022-08-19T07:50:38.957Z,29.18
2022-08-19T07:53:08.325Z,29.25
2022-08-19T07:55:42.111Z,29.38
2022-08-19T07:58:13.990Z,29.51
2022-08-19T08:00:43.477Z,29.66
2022-08-19T08:03:14.315Z,29.78
2022-08-19T08:06:01.253Z,29.86
2022-08-19T08:08:48.578Z,29.95
2022-08-19T08:11:20.654Z,30.06
2022-08-19T08:14:01.210Z,30.11
2022-08-19T08:16:39.624Z,30.14
2022-08-19T08:19:25.770Z,30.21
2022-08-19T08:21:55.823Z,30.28
2022-08-19T08:24:28.588Z,30.33
2022-08-19T08:26:58.893Z,30.40
2022-08-19T08:29:34.827Z,30.48
2022-08-19T08:32:13.855Z,30.59
2022-08-19T08:34:44.544Z,30.70
2022-08-19T08:37:16.308Z,30.75
2022-08-19T08:39:45.275Z,30.77
2022-08-19T08:42:23.058Z,30.84
2022-08-19T08:44:59.285Z,30.92
2022-08-19T08:47:33.851Z,30.98
2022-08-19T08:50:09.032Z,31.06
2022-08-19T08:52:43.766Z,31.13
2022-08-19T08:55:15.662Z,31.25
2022-08-19T08:57:56.066Z,31.36
2022-08-19T09:00:27.861Z,31.43
2022-08-19T09:02:56.873Z,31.50
2022-08-19T09:05:37.665Z,31.66
2022-08-19T09:08:19.280Z,31.75
2022-08-19T09:10:55.227Z,31.81
2022-08-19T09:13:37.502Z,32.00
2022-08-19T09:16:09.763Z,32.13
2022-08-19T09:18:43.191Z,32.20
2022-08-19T09:21:13.456Z,32.28
2022-08-19T09:23:43.773Z,32.37
2022-08-19T09:26:16.545Z,32.39
2022-08-19T09:28:48.819Z,32.54
2022-08-19T09:31:20.062Z,32.74
2022-08-19T09:33:49.310Z,32.83
2022-08-19T09:36:31.287Z,32.91
2022-08-19T09:39:05.179Z,32.97
2022-08-19T09:41:47.604Z,32.99
2022-08-19T09:44:18.836Z,33.03
2022-08-19T09:46:49.339Z,33.17
2022-08-19T09:49:19.844Z,33.28
2022-08-19T09:51:55.565Z,33.37
2022-08-19T09:54:25.549Z,33.48
2022-08-19T09:56:54.930Z,33.60
2022-08-19T09:59:23.977Z,33.59
2022-08-19T10:01:53.238Z,33.52
2022-08-19T10:04:23.393Z,33.40
2022-08-19T10:06:58.494Z,33.53
2022-08-19T10:09:34.364Z,33.64
2022-08-19T10:12:06.080Z,33.74
2022-08-19T10:14:36.091Z,33.84
2022-08-19T10:17:19.873Z,33.96
2022-08-19T10:19:55.847Z,34.07
2022-08-19T10:22:26.386Z,34.11
2022-08-19T10:24:55.222Z,34.09
2022-08-19T10:27:23.960Z,34.14
2022-08-19T10:29:55.014Z,34.26
2022-08-19T10:32:34.265Z,34.29
2022-08-19T10:35:06.124Z,34.34
2022-08-19T10:37:36.659Z,34.36
2022-08-19T10:40:25.394Z,34.36
2022-08-19T10:42:54.564Z,34.43
2022-08-19T10:45:28.281Z,34.48
2022-08-19T10:47:56.923Z,34.63
2022-08-19T10:50:50.657Z,34.86
2022-08-19T10:53:24.932Z,35.03
2022-08-19T10:56:11.910Z,35.15
2022-08-19T10:58:41.653Z,35.22
2022-08-19T11:01:10.576Z,35.43
2022-08-19T11:03:39.250Z,35.58
2022-08-19T11:06:09.833Z,35.72
2022-08-19T11:08:42.069Z,35.83
2022-08-19T11:11:11.258Z,35.91
2022-08-19T11:13:42.342Z,35.95
2022-08-19T11:16:15.210Z,35.97
2022-08-19T11:18:45.976Z,35.91
2022-08-19T11:21:18.116Z,35.84
2022-08-19T11:23:50.679Z,35.85
2022-08-19T11:26:20.906Z,35.96
2022-08-19T11:28:52.019Z,36.04
2022-08-19T11:31:23.948Z,36.00
2022-08-19T11:33:59.105Z,35.73
2022-08-19T11:36:28.520Z,35.56
2022-08-19T11:39:00.015Z,35.51
2022-08-19T11:41:29.332Z,35.52
2022-08-19T11:43:58.192Z,35.57
2022-08-19T11:46:30.834Z,35.57
2022-08-19T11:49:00.243Z,35.62
2022-08-19T11:51:30.933Z,35.57
2022-08-19T11:54:01.948Z,35.56
2022-08-19T11:56:31.034Z,35.52
2022-08-19T11:59:00.107Z,35.47
2022-08-19T12:01:29.027Z,35.46
2022-08-19T12:03:59.042Z,35.40
2022-08-19T12:06:32.814Z,35.42
2022-08-19T12:09:06.834Z,35.46
2022-08-19T12:11:35.919Z,35.40
2022-08-19T12:14:04.919Z,35.30
2022-08-19T12:16:37.821Z,35.27
2022-08-19T12:19:09.529Z,35.27
2022-08-19T12:21:38.458Z,35.28
2022-08-19T12:24:09.575Z,35.42
2022-08-19T12:26:52.765Z,35.64
2022-08-19T12:29:29.733Z,35.80
2022-08-19T12:32:03.855Z,35.73
2022-08-19T12:34:34.482Z,35.59
2022-08-19T12:37:05.660Z,35.54
2022-08-19T12:39:39.589Z,35.58
2022-08-19T12:42:09.575Z,35.62
2022-08-19T12:44:38.757Z,35.63
2022-08-19T12:47:11.228Z,35.65
2022-08-19T12:49:53.979Z,35.76
2022-08-19T12:52:25.705Z,35.74
2022-08-19T12:54:57.077Z,35.61
2022-08-19T12:57:32.454Z,35.42
2022-08-19T13:00:05.771Z,35.30
2022-08-19T13:02:38.836Z,35.28
2022-08-19T13:05:11.125Z,35.28
2022-08-19T13:07:40.929Z,35.33
2022-08-19T13:10:13.533Z,35.44
2022-08-19T13:12:43.050Z,35.54
2022-08-19T13:15:15.227Z,35.44
2022-08-19T13:17:44.427Z,35.28
2022-08-19T13:20:13.628Z,35.10
2022-08-19T13:22:42.088Z,35.04
2022-08-19T13:25:13.157Z,35.03
2022-08-19T13:27:42.879Z,35.05
2022-08-19T13:30:31.574Z,35.27
2022-08-19T13:33:16.637Z,35.36
2022-08-19T13:35:48.889Z,35.34
2022-08-19T13:38:19.762Z,35.32
2022-08-19T13:40:50.735Z,35.22
2022-08-19T13:43:23.378Z,35.19
2022-08-19T13:45:53.810Z,35.14
2022-08-19T13:48:23.313Z,35.11
2022-08-19T13:50:51.978Z,35.08
2022-08-19T13:53:21.359Z,35.04
2022-08-19T13:55:52.287Z,34.97
2022-08-19T13:58:20.930Z,34.90
2022-08-19T14:00:50.641Z,34.85
2022-08-19T14:03:19.316Z,34.79
2022-08-19T14:05:49.089Z,34.77
2022-08-19T14:08:18.380Z,34.79
2022-08-19T14:10:47.324Z,34.81
2022-08-19T14:13:23.301Z,34.69
2022-08-19T14:15:53.874Z,34.53
2022-08-19T14:18:22.713Z,34.52
2022-08-19T14:20:55.124Z,34.52
2022-08-19T14:23:24.879Z,34.40
2022-08-19T14:26:00.811Z,34.33
2022-08-19T14:28:33.884Z,34.24
2022-08-19T14:31:02.834Z,34.18
2022-08-19T14:33:31.696Z,34.21
2022-08-19T14:36:01.860Z,34.27
2022-08-19T14:38:32.640Z,34.18
2022-08-19T14:41:17.849Z,34.10
2022-08-19T14:43:49.521Z,34.05
2022-08-19T14:46:18.994Z,33.93
2022-08-19T14:48:50.731Z,33.90
2022-08-19T14:51:27.586Z,33.85
2022-08-19T14:53:57.114Z,33.78
2022-08-19T14:56:28.453Z,33.71
2022-08-19T14:59:02.221Z,33.55
2022-08-19T15:01:31.922Z,33.44
2022-08-19T15:04:04.445Z,33.39
2022-08-19T15:06:34.705Z,33.30
2022-08-19T15:09:05.072Z,33.17
2022-08-19T15:11:40.935Z,33.09
2022-08-19T15:14:11.407Z,33.04
2022-08-19T15:16:42.940Z,33.02
2022-08-19T15:19:12.962Z,32.97
2022-08-19T15:21:42.653Z,32.93
2022-08-19T15:24:11.637Z,32.84
2022-08-19T15:26:40.643Z,32.76
2022-08-19T15:29:10.694Z,32.71
2022-08-19T15:31:40.404Z,32.65
2022-08-19T15:34:09.541Z,32.55
2022-08-19T15:36:38.815Z,32.45
2022-08-19T15:39:10.338Z,32.35
2022-08-19T15:41:39.766Z,32.22
2022-08-19T15:44:13.505Z,32.16
2022-08-19T15:46:45.062Z,32.08
2022-08-19T15:49:14.064Z,31.99
2022-08-19T15:51:45.569Z,31.92
2022-08-19T15:54:17.533Z,31.88
2022-08-19T15:57:04.028Z,31.82
2022-08-19T15:59:53.234Z,31.75
2022-08-19T16:02:42.195Z,31.66
2022-08-19T16:05:32.013Z,31.57
2022-08-19T16:08:00.535Z,31.54
2022-08-19T16:10:29.473Z,31.48
2022-08-19T16:12:59.780Z,31.39
2022-08-19T16:15:31.956Z,31.35
2022-08-19T16:18:03.196Z,31.27
2022-08-19T16:20:33.176Z,31.17
2022-08-19T16:23:06.089Z,31.06
2022-08-19T16:25:34.741Z,30.93
2022-08-19T16:28:07.859Z,30.80
2022-08-19T16:30:40.724Z,30.72
2022-08-19T16:33:10.255Z,30.64
2022-08-19T16:35:43.663Z,30.55
2022-08-19T16:38:15.702Z,30.48
2022-08-19T16:40:46.736Z,30.42
2022-08-19T16:43:15.478Z,30.37
2022-08-19T16:45:45.312Z,30.30
2022-08-19T16:48:14.491Z,30.23
2022-08-19T16:50:49.656Z,30.17
2022-08-19T16:53:21.563Z,30.09
2022-08-19T16:55:53.586Z,30.00
2022-08-19T16:58:28.488Z,29.90
2022-08-19T17:01:03.997Z,29.80
2022-08-19T17:03:36.149Z,29.72
2022-08-19T17:06:18.248Z,29.60
2022-08-19T17:08:51.632Z,29.53
2022-08-19T17:11:21.309Z,29.46
2022-08-19T17:13:51.127Z,29.41
2022-08-19T17:16:25.019Z,29.31
2022-08-19T17:18:55.548Z,29.23
2022-08-19T17:21:29.056Z,29.15
2022-08-19T17:23:58.446Z,29.07
2022-08-19T17:26:27.662Z,29.01
2022-08-19T17:28:59.323Z,28.93
2022-08-19T17:31:32.667Z,28.84
2022-08-19T17:34:04.428Z,28.76
2022-08-19T17:36:35.282Z,28.69
2022-08-19T17:39:05.428Z,28.62
2022-08-19T17:41:35.366Z,28.55
2022-08-19T17:44:04.779Z,28.51
2022-08-19T17:46:35.226Z,28.44
2022-08-19T17:49:04.219Z,28.39
2022-08-19T17:51:45.249Z,28.37
2022-08-19T17:54:16.621Z,28.35
2022-08-19T17:56:48.077Z,28.29
2022-08-19T17:59:16.886Z,28.27
2022-08-19T18:01:52.959Z,28.23
2022-08-19T18:04:25.204Z,28.17
2022-08-19T18:06:56.138Z,28.15
2022-08-19T18:09:27.030Z,28.12
2022-08-19T18:11:58.298Z,28.06
2022-08-19T18:14:35.568Z,28.01
2022-08-19T18:17:10.156Z,27.91
2022-08-19T18:19:43.059Z,27.86
2022-08-19T18:22:15.034Z,27.82
2022-08-19T18:24:45.913Z,27.76
2022-08-19T18:27:15.058Z,27.67
2022-08-19T18:29:45.608Z,27.60
2022-08-19T18:32:23.776Z,27.52
2022-08-19T18:34:56.327Z,27.43
2022-08-19T18:37:27.103Z,27.37
2022-08-19T18:40:13.677Z,27.28
2022-08-19T18:43:03.045Z,27.21
2022-08-19T18:45:58.415Z,27.16
2022-08-19T18:48:47.197Z,27.06
2022-08-19T18:51:17.499Z,27.00
2022-08-19T18:53:49.837Z,26.94
2022-08-19T18:56:24.115Z,26.87
2022-08-19T18:58:53.311Z,26.83
2022-08-19T19:01:27.047Z,26.80
2022-08-19T19:04:01.826Z,26.74
2022-08-19T19:06:35.998Z,26.72
2022-08-19T19:09:06.401Z,26.68
2022-08-19T19:11:38.469Z,26.68
2022-08-19T19:14:19.164Z,26.63
2022-08-19T19:17:03.074Z,26.60
2022-08-19T19:19:33.806Z,26.61
2022-08-19T19:22:04.783Z,26.62
2022-08-19T19:24:34.282Z,26.66
2022-08-19T19:27:07.058Z,26.67
2022-08-19T19:29:36.705Z,26.68
2022-08-19T19:32:08.304Z,26.69
2022-08-19T19:34:41.005Z,26.71
2022-08-19T19:37:09.961Z,26.70
2022-08-19T19:39:45.935Z,26.67
2022-08-19T19:42:20.374Z,26.58
2022-08-19T19:44:51.148Z,26.50
2022-08-19T19:47:24.792Z,26.48
2022-08-19T19:50:14.421Z,26.50
2022-08-19T19:52:45.803Z,26.49
2022-08-19T19:55:18.549Z,26.49
2022-08-19T19:57:48.176Z,26.49
2022-08-19T20:00:19.168Z,26.49
2022-08-19T20:02:50.349Z,26.47
2022-08-19T20:05:21.774Z,26.44
2022-08-19T20:08:09.041Z,26.41
2022-08-19T20:10:39.066Z,26.38
2022-08-19T20:13:09.489Z,26.34
2022-08-19T20:15:42.695Z,26.30
2022-08-19T20:18:14.468Z,26.29
2022-08-19T20:20:45.251Z,26.27
2022-08-19T20:23:13.875Z,26.18
2022-08-19T20:25:43.025Z,26.10
2022-08-19T20:28:12.626Z,26.06
2022-08-19T20:30:46.543Z,26.02
2022-08-19T20:33:18.068Z,25.99
2022-08-19T20:35:48.331Z,25.98
2022-08-19T20:38:17.341Z,25.95
2022-08-19T20:40:46.618Z,25.87
2022-08-19T20:43:15.920Z,25.79
2022-08-19T20:45:47.247Z,25.75
2022-08-19T20:48:18.332Z,25.68
2022-08-19T20:50:49.204Z,25.66
2022-08-19T20:53:23.350Z,25.61
2022-08-19T20:55:59.745Z,25.58
2022-08-19T20:58:31.208Z,25.53
2022-08-19T21:01:11.898Z,25.50
2022-08-19T21:03:43.312Z,25.45
2022-08-19T21:06:14.699Z,25.40
2022-08-19T21:08:44.297Z,25.35
2022-08-19T21:11:14.839Z,25.36
2022-08-19T21:13:50.335Z,25.34
2022-08-19T21:16:21.217Z,25.32
2022-08-19T21:18:50.028Z,25.30
2022-08-19T21:21:20.493Z,25.28
2022-08-19T21:23:49.738Z,25.26
2022-08-19T21:26:18.769Z,25.25
2022-08-19T21:28:48.507Z,25.22
2022-08-19T21:31:18.241Z,25.21
2022-08-19T21:33:47.030Z,25.17
2022-08-19T21:36:17.863Z,25.13
2022-08-19T21:38:48.016Z,25.11
2022-08-19T21:41:17.199Z,25.10
2022-08-19T21:43:47.341Z,25.08
2022-08-19T21:46:17.642Z,25.04
2022-08-19T21:48:46.788Z,24.96
2022-08-19T21:51:17.333Z,24.86
2022-08-19T21:53:52.911Z,24.71
2022-08-19T21:56:22.919Z,24.59
2022-08-19T21:58:52.097Z,24.45
2022-08-19T22:01:20.749Z,24.32
2022-08-19T22:03:49.339Z,24.18
2022-08-19T22:06:22.991Z,24.08
2022-08-19T22:08:55.694Z,23.97
2022-08-19T22:11:26.916Z,23.86
2022-08-19T22:13:57.045Z,23.80
2022-08-19T22:16:26.239Z,23.72
2022-08-19T22:18:54.837Z,23.67
2022-08-19T22:21:40.327Z,23.62
2022-08-19T22:24:12.551Z,23.56
2022-08-19T22:26:41.823Z,23.53
2022-08-19T22:29:11.348Z,23.49
2022-08-19T22:31:54.253Z,23.47
2022-08-19T22:34:26.946Z,23.45
2022-08-19T22:36:57.980Z,23.43
2022-08-19T22:39:28.958Z,23.35
2022-08-19T22:41:58.770Z,23.29
2022-08-19T22:44:28.414Z,23.24
2022-08-19T22:46:56.943Z,23.21
2022-08-19T22:49:25.673Z,23.20
2022-08-19T22:52:12.079Z,23.21
2022-08-19T22:54:42.621Z,23.19
2022-08-19T22:57:11.551Z,23.17
2022-08-19T22:59:40.438Z,23.17
2022-08-19T23:02:10.587Z,23.16
2022-08-19T23:04:39.254Z,23.14
2022-08-19T23:07:08.553Z,23.13
2022-08-19T23:09:38.025Z,23.11
2022-08-19T23:12:10.455Z,23.10
2022-08-19T23:14:40.121Z,23.07
2022-08-19T23:17:09.737Z,23.07
2022-08-19T23:19:39.270Z,23.05
2022-08-19T23:22:08.872Z,23.04
2022-08-19T23:24:37.452Z,22.98
2022-08-19T23:27:22.858Z,22.92
2022-08-19T23:30:15.085Z,22.89
2022-08-19T23:32:46.477Z,22.82
2022-08-19T23:35:15.816Z,22.72
2022-08-19T23:37:45.152Z,22.67
2022-08-19T23:40:17.347Z,22.61
2022-08-19T23:42:49.274Z,22.55
2022-08-19T23:45:23.795Z,22.53
2022-08-19T23:47:55.003Z,22.51
2022-08-19T23:50:25.281Z,22.47
2022-08-19T23:52:58.278Z,22.46
2022-08-19T23:55:30.505Z,22.49
2022-08-19T23:58:00.110Z,22.47
